Shelbyville, Tennessee
Current Conditions -  °F | °C
As of 2:35 AM on Tuesday 27 Jan 2015 (Local Time) from KSYI Reporting Station
Overcast Overcast  
Wind Chill: 36°   Ceiling: 4200
Heat Index: 36°   Visibility: 10mi
Dew Point: 32°   Wind: 0mph
Humidity: 87%   Direction: NA
Pressure: 29.9"   Gusts: NA
Location:  35.48°N, 86.46°W
Report Text: KSYI 270835Z AUTO 00000KT 10SM BKN042 OVC060 02/00 A2990 RMK
Loading
Personal Weather Stations






























Interactive Weather Map New forecast layout! Learn more

10-Day Weather Forecast

Advertisements
Track Severe Weather on mobile